• Join FlightAware (Why Join?)
  • Login
  • US Flag 
11:44AM EDT


 

Airport Tracker/Info


-or-


 

Live Flight TrackerFlight Track Log ✈ CHH7968 ✈ 17-Jul-2013 ✈ UIII / IKT - ZBAA / PEK

Flight Track Log - Related Links

Times and Time Zones

All times are in EDT time to prevent confusion due to time zone crossing. See the CHH7968 flight status page for this flight to view local times or setup timezone preferences in your user account.

Time Position Orientation Groundspeed Altitude Reporting Facility
EDT Latitude Longitude Course Direction KTS MPH feet Rate Location/Type
04:13AM 52.2720 104.3750 293° West 156 180 2,400  Level FlightAware
04:14AM 52.2780 104.3560 297° West 149 171 3,400 1,980 Climbing FlightAware
04:14AM 52.2920 104.3470 339° North 179 206 3,800 1,140 Climbing FlightAware
04:14AM 52.3140 104.3720 35° Northeast 242 278 4,200 1,320 Climbing FlightAware
04:15AM 52.3190 104.4040 76° East 268 308 4,700 2,280 Climbing FlightAware
04:15AM 52.2980 104.4630 120° Southeast 292 336 6,000 2,820 Climbing FlightAware
04:16AM 52.2790 104.5130 122° Southeast 294 338 7,300 2,940 Climbing FlightAware
04:16AM 52.2580 104.5760 119° Southeast 304 350 8,700 2,640 Climbing FlightAware
04:17AM 52.2370 104.6210 127° Southeast 314 361 9,700 2,580 Climbing FlightAware
04:17AM 52.1760 104.6730 152° Southeast 326 375 11,800 2,220 Climbing FlightAware
04:18AM 52.1290 104.7110 154° Southeast 356 410 12,600 1,740 Climbing FlightAware
04:19AM 52.0670 104.7620 153° Southeast 383 441 13,900 2,280 Climbing FlightAware
04:19AM 52.0050 104.8130 153° Southeast 391 450 15,800 2,760 Climbing FlightAware
04:20AM 51.9240 104.8800 153° Southeast 403 464 18,000 2,280 Climbing FlightAware
04:21AM 51.8630 104.9300 153° Southeast 413 475 19,000 720 Climbing FlightAware
04:21AM 51.7890 104.9910 153° Southeast 412 474 19,000 540 Level FlightAware
04:22AM 51.7310 105.0380 153° Southeast 408 470 19,800 540 Climbing FlightAware
04:23AM 51.6580 105.1030 151° Southeast 408 470 19,800 2,160 Level FlightAware
04:23AM 51.5830 105.2000 141° Southeast 427 491 23,100 2,820 Climbing FlightAware
04:24AM 51.5310 105.2560 146° Southeast 429 494 23,400 180 Climbing FlightAware
04:25AM 51.4640 105.3290 146° Southeast 429 494 23,400  Level FlightAware
04:26AM 51.4140 105.3830 146° Southeast 429 494 23,400 3,540 Level FlightAware
04:26AM 51.2960 105.5070 147° Southeast 451 519 28,200 3,060 Climbing FlightAware
04:27AM 51.2130 105.6670 130° Southeast 449 517 29,200 540 Climbing FlightAware
04:28AM 51.1730 105.7460 129° Southeast 449 517 29,200  Level FlightAware
04:29AM 51.1190 105.8510 129° Southeast 449 517 29,200  Level FlightAware
04:29AM 51.0790 105.9290 129° Southeast 449 517 29,200  Level FlightAware
04:30AM 51.0250 106.0360 129° Southeast 449 517 29,200  Level FlightAware
04:31AM 50.9850 106.1150 129° Southeast 449 517 29,200 -240 Level FlightAware
04:34AM 50.7935 106.3496 142° Southeast  Level Estimated
04:35AM 50.7086 106.4529 142° Southeast  Level Estimated
04:36AM 50.6235 106.5558 142° Southeast  Level Estimated
04:37AM 50.5384 106.6584 143° Southeast  Level Estimated
04:38AM 50.4532 106.7606 143° Southeast  Level Estimated
04:39AM 50.3679 106.8624 143° Southeast  Level Estimated
04:40AM 50.2825 106.9638 143° Southeast  Level Estimated
04:41AM 50.1970 107.0649 143° Southeast  Level Estimated
04:42AM 50.1114 107.1656 143° Southeast  Level Estimated
04:43AM 50.0258 107.2660 143° Southeast  Level Estimated
04:44AM 49.9400 107.3660 143° Southeast  Level Estimated
04:45AM 49.8542 107.4656 143° Southeast  Level Estimated
04:46AM 49.7683 107.5649 143° Southeast  Level Estimated
04:47AM 49.6823 107.6639 143° Southeast  Level Estimated
04:48AM 49.5962 107.7625 143° Southeast  Level Estimated
04:49AM 49.5100 107.8607 143° Southeast  Level Estimated
04:50AM 49.4238 107.9586 144° Southeast  Level Estimated
04:51AM 49.3375 108.0562 144° Southeast  Level Estimated
04:52AM 49.2510 108.1534 144° Southeast  Level Estimated
04:53AM 49.1646 108.2502 144° Southeast  Level Estimated
04:54AM 49.0780 108.3468 144° Southeast  Level Estimated
04:55AM 48.9913 108.4430 144° Southeast  Level Estimated
04:56AM 48.9046 108.5388 144° Southeast  Level Estimated
04:57AM 48.8178 108.6344 144° Southeast  Level Estimated
04:58AM 48.7309 108.7296 144° Southeast  Level Estimated
04:59AM 48.6439 108.8244 144° Southeast  Level Estimated
05:00AM 48.5569 108.9190 144° Southeast  Level Estimated
05:01AM 48.4698 109.0132 144° Southeast  Level Estimated
05:02AM 48.3826 109.1071 144° Southeast  Level Estimated
05:03AM 48.2953 109.2007 144° Southeast  Level Estimated
05:04AM 48.2079 109.2939 145° Southeast  Level Estimated
05:05AM 48.1205 109.3869 145° Southeast  Level Estimated
05:06AM 48.0330 109.4795 145° Southeast  Level Estimated
05:07AM 47.9454 109.5718 145° Southeast  Level Estimated
05:08AM 47.8578 109.6638 145° Southeast  Level Estimated
05:09AM 47.7701 109.7555 145° Southeast  Level Estimated
05:10AM 47.6823 109.8469 145° Southeast  Level Estimated
05:11AM 47.5944 109.9379 145° Southeast  Level Estimated
05:12AM 47.5064 110.0287 145° Southeast  Level Estimated
05:13AM 47.4184 110.1192 145° Southeast  Level Estimated
05:14AM 47.3303 110.2093 145° Southeast  Level Estimated
05:15AM 47.2422 110.2992 145° Southeast  Level Estimated
05:16AM 47.1540 110.3887 145° Southeast  Level Estimated
05:17AM 47.0657 110.4780 145° Southeast  Level Estimated
05:18AM 46.9773 110.5670 146° Southeast  Level Estimated
05:19AM 46.8889 110.6556 146° Southeast  Level Estimated
05:20AM 46.8004 110.7440 146° Southeast  Level Estimated
05:21AM 46.7118 110.8321 146° Southeast  Level Estimated
05:22AM 46.6232 110.9199 146° Southeast  Level Estimated
05:23AM 46.5345 111.0074 146° Southeast  Level Estimated
05:24AM 46.4457 111.0947 146° Southeast  Level Estimated
05:25AM 46.3569 111.1816 146° Southeast  Level Estimated
05:26AM 46.2680 111.2683 146° Southeast  Level Estimated
05:27AM 46.1790 111.3546 146° Southeast  Level Estimated
05:28AM 46.0900 111.4407 146° Southeast  Level Estimated
05:29AM 46.0009 111.5266 146° Southeast  Level Estimated
05:30AM 45.9117 111.6121 146° Southeast  Level Estimated
05:31AM 45.8225 111.6974 146° Southeast  Level Estimated
05:32AM 45.7332 111.7824 146° Southeast  Level Estimated
05:33AM 45.6439 111.8671 146° Southeast  Level Estimated
05:34AM 45.5545 111.9516 147° Southeast  Level Estimated
05:35AM 45.4650 112.0358 147° Southeast  Level Estimated
05:36AM 45.3755 112.1197 147° Southeast  Level Estimated
05:37AM 45.2859 112.2034 147° Southeast  Level Estimated
05:38AM 45.1962 112.2868 147° Southeast  Level Estimated
05:39AM 45.1065 112.3699 147° Southeast  Level Estimated
05:40AM 45.0167 112.4528 147° Southeast  Level Estimated
05:41AM 44.9269 112.5354 147° Southeast  Level Estimated
05:42AM 44.8370 112.6177 147° Southeast  Level Estimated
05:43AM 44.7470 112.6998 147° Southeast  Level Estimated
05:44AM 44.6570 112.7817 147° Southeast  Level Estimated
05:45AM 44.5669 112.8633 147° Southeast  Level Estimated
05:46AM 44.4768 112.9446 147° Southeast  Level Estimated
05:47AM 44.3866 113.0257 147° Southeast  Level Estimated
05:48AM 44.2963 113.1065 147° Southeast  Level Estimated
05:49AM 44.2061 113.1871 147° Southeast  Level Estimated
05:50AM 44.1157 113.2674 147° Southeast  Level Estimated
05:51AM 44.0253 113.3475 147° Southeast  Level Estimated
05:52AM 43.9348 113.4274 148° Southeast  Level Estimated
05:53AM 43.8443 113.5070 148° Southeast  Level Estimated
05:54AM 43.7537 113.5864 148° Southeast  Level Estimated
05:55AM 43.6631 113.6655 148° Southeast  Level Estimated
05:56AM 43.5724 113.7444 148° Southeast  Level Estimated
05:57AM 43.4816 113.8231 148° Southeast  Level Estimated
05:58AM 43.3908 113.9015 148° Southeast  Level Estimated
05:59AM 43.3000 113.9797 148° Southeast  Level Estimated
06:00AM 43.2091 114.0576 148° Southeast  Level Estimated
06:01AM 43.1181 114.1353 148° Southeast  Level Estimated
06:02AM 43.0271 114.2128 148° Southeast  Level Estimated
06:03AM 42.9361 114.2901 148° Southeast  Level Estimated
06:04AM 42.8449 114.3671 148° Southeast  Level Estimated
06:05AM 42.7538 114.4439 148° Southeast  Level Estimated
06:06AM 42.6626 114.5205 148° Southeast  Level Estimated
06:07AM 42.5713 114.5968 148° Southeast  Level Estimated
06:08AM 42.4800 114.6729 148° Southeast  Level Estimated
06:09AM 42.3886 114.7488 148° Southeast  Level Estimated
06:10AM 42.2972 114.8245 149° Southeast  Level Estimated
06:11AM 42.2057 114.9000 149° Southeast  Level Estimated
06:12AM 42.1142 114.9753 149° Southeast  Level Estimated
06:13AM 42.0226 115.0503 149° Southeast  Level Estimated
06:14AM 41.9310 115.1251 149° Southeast  Level Estimated
06:15AM 41.8393 115.1997 149° Southeast  Level Estimated
06:16AM 41.7476 115.2741 149° Southeast  Level Estimated
06:17AM 41.6559 115.3483 149° Southeast  Level Estimated
06:18AM 41.5641 115.4222 149° Southeast  Level Estimated
06:19AM 41.4722 115.4960 149° Southeast  Level Estimated
06:20AM 41.3803 115.5695 149° Southeast  Level Estimated
06:21AM 41.2884 115.6428 149° Southeast  Level Estimated
06:22AM 41.1964 115.7160 149° Southeast  Level Estimated
06:23AM 41.1043 115.7889 149° Southeast  Level Estimated
06:24AM 41.0122 115.8616 149° Southeast  Level Estimated
06:25AM 40.9201 115.9341 149° Southeast  Level Estimated
06:26AM 40.8279 116.0064 149° Southeast  Level Estimated
06:26AM 40.3760 116.3800 149° Southeast 212 244 6,700  Level FlightAware
06:27AM 40.7357 116.0786 149° Southeast  Level Estimated
06:27AM 40.3810 116.4250 82° East 208 239 6,500  Level FlightAware
06:30AM 40.1194 116.5638 158° South  Level Estimated
06:31AM 40.0801 116.5846 158° South  Level Estimated
06:32AM 40.0801 116.5846 288° West  Level Estimated
06:33AM 40.0801 116.5846 288° West  Level Estimated
06:34AM 40.0801 116.5846 288° West  Level Estimated
06:35AM 40.0801 116.5846 288° West  Level Estimated
06:36AM 40.0801 116.5846 288° West  Level Estimated
06:37AM 40.0801 116.5846 288° West  Level Estimated
06:38AM 40.0801 116.5846 288° West  Level Estimated
06:39AM 40.0801 116.5846 288° West  Level Estimated
06:40AM 40.0801 116.5846 288° West  Level Estimated
06:41AM 40.0801 116.5846 288° West  Level Estimated
06:42AM 40.0801 116.5846 288° West  Level Estimated
06:43AM 40.0801 116.5846 288° West  Level Estimated
06:44AM 40.0801 116.5846 288° West  Level Estimated
06:45AM 40.0801 116.5846 288° West  Level Estimated
06:46AM 40.0801 116.5846 288° West  Level Estimated